Time;durP1;ratioP1;P1;durP2;ratioP2;P2;SDS_P1;SDS_P2;PMS_P1;PMS_P2;Temp;Humidity;BMP_temperature;BMP_pressure;BME280_temperature;BME280_humidity;BME280_pressure;Samples;Min_cycle;Max_cycle;Signal;HPM_P1;HPM_P2
2020/12/20 00:00:42;;;;;;;8.83;7.40;;;10.30;99.90;;;;;;5067084;28;20689;-69
2020/12/20 00:03:26;;;;;;;7.30;6.50;;;10.30;99.90;;;;;;5050064;28;20695;-69
2020/12/20 00:06:11;;;;;;;9.03;7.07;;;10.30;99.90;;;;;;5052800;28;21159;-69
2020/12/20 00:08:56;;;;;;;7.57;6.87;;;10.30;99.90;;;;;;5063712;28;20779;-69
2020/12/20 00:11:47;;;;;;;7.63;7.00;;;10.30;99.90;;;;;;5064926;28;20650;-69
2020/12/20 00:14:36;;;;;;;6.67;6.17;;;10.30;99.90;;;;;;5063828;28;20653;-70
2020/12/20 00:17:23;;;;;;;8.27;7.10;;;10.30;99.90;;;;;;5072159;28;20569;-70
2020/12/20 00:20:08;;;;;;;7.43;6.73;;;10.30;99.90;;;;;;5052331;28;20708;-69
2020/12/20 00:22:53;;;;;;;7.67;6.67;;;10.40;99.90;;;;;;5058577;28;20704;-70
2020/12/20 00:25:37;;;;;;;7.30;6.60;;;10.40;99.90;;;;;;5071645;28;20581;-70
2020/12/20 00:28:22;;;;;;;7.60;6.80;;;10.40;99.90;;;;;;5062682;28;20585;-70
2020/12/20 00:31:06;;;;;;;7.63;6.73;;;10.30;99.90;;;;;;5053645;28;20633;-70
2020/12/20 00:33:51;;;;;;;8.27;7.47;;;10.40;99.90;;;;;;5056324;28;20628;-70
2020/12/20 00:36:35;;;;;;;8.20;6.90;;;10.30;99.90;;;;;;5061432;28;20605;-70
2020/12/20 00:39:21;;;;;;;8.00;7.27;;;10.40;99.90;;;;;;5056860;28;20772;-70
2020/12/20 00:42:06;;;;;;;7.80;7.10;;;10.30;99.90;;;;;;5053708;28;20648;-69
2020/12/20 00:44:51;;;;;;;8.00;7.20;;;10.30;99.90;;;;;;5058448;28;20637;-69
2020/12/20 00:47:35;;;;;;;7.23;6.53;;;10.20;99.90;;;;;;5067659;28;20625;-70
2020/12/20 00:50:20;;;;;;;7.43;6.73;;;10.10;99.90;;;;;;5062242;28;21258;-69
2020/12/20 00:53:04;;;;;;;7.30;6.60;;;10.10;99.90;;;;;;5051168;28;20641;-70
2020/12/20 00:55:49;;;;;;;9.03;7.30;;;10.10;99.90;;;;;;5062242;28;20954;-70
2020/12/20 00:58:33;;;;;;;8.20;7.40;;;10.10;99.90;;;;;;5050663;28;21241;-70
2020/12/20 01:01:18;;;;;;;8.37;7.50;;;10.10;99.90;;;;;;5053168;28;20633;-70
2020/12/20 01:04:03;;;;;;;7.30;6.70;;;10.10;99.90;;;;;;5060502;28;20632;-70
2020/12/20 01:06:47;;;;;;;7.43;6.73;;;10.00;99.90;;;;;;5062778;28;20643;-70
2020/12/20 01:09:31;;;;;;;7.83;7.23;;;10.00;99.90;;;;;;5058051;28;20750;-69
2020/12/20 01:12:16;;;;;;;7.53;6.83;;;10.00;99.90;;;;;;5051241;28;20610;-70
2020/12/20 01:15:01;;;;;;;8.50;7.10;;;9.90;99.90;;;;;;5050529;28;20582;-69
2020/12/20 01:17:47;;;;;;;7.80;6.83;;;9.80;99.90;;;;;;5060975;28;20620;-71
2020/12/20 01:20:32;;;;;;;7.97;7.10;;;9.80;99.90;;;;;;5049419;28;21079;-71
2020/12/20 01:23:16;;;;;;;7.13;6.43;;;9.80;99.90;;;;;;5056728;28;20668;-70
2020/12/20 01:26:01;;;;;;;7.70;7.00;;;9.90;99.90;;;;;;5063620;28;21234;-75
2020/12/20 01:28:49;;;;;;;7.57;6.70;;;9.80;99.90;;;;;;5057449;28;20601;-70
2020/12/20 01:31:33;;;;;;;7.77;6.97;;;9.70;99.90;;;;;;5045377;28;20637;-69
2020/12/20 01:34:18;;;;;;;7.70;7.00;;;9.70;99.90;;;;;;5063424;28;21237;-71
2020/12/20 01:37:02;;;;;;;7.40;6.70;;;9.70;99.90;;;;;;5067285;28;20663;-70
2020/12/20 01:39:46;;;;;;;8.43;7.53;;;9.70;99.90;;;;;;5064150;28;20647;-70
2020/12/20 01:42:31;;;;;;;8.60;7.70;;;9.60;99.90;;;;;;5055384;28;20681;-70
2020/12/20 01:45:15;;;;;;;8.57;7.70;;;9.60;99.90;;;;;;5058414;28;20617;-71
2020/12/20 01:48:02;;;;;;;7.43;6.70;;;9.50;99.90;;;;;;5072916;28;20616;-70
2020/12/20 01:50:46;;;;;;;8.23;7.33;;;9.50;99.90;;;;;;5062655;28;20784;-69
2020/12/20 01:53:32;;;;;;;8.10;7.30;;;9.60;99.90;;;;;;5056593;28;20720;-69
2020/12/20 01:56:17;;;;;;;8.37;7.47;;;9.60;99.90;;;;;;5054705;28;20618;-70
2020/12/20 01:59:02;;;;;;;7.43;6.77;;;9.60;99.90;;;;;;5053386;28;20621;-71
2020/12/20 02:01:46;;;;;;;7.17;6.57;;;9.50;99.90;;;;;;5054738;28;21315;-72
2020/12/20 02:04:31;;;;;;;8.53;6.60;;;9.50;99.90;;;;;;5069946;28;20673;-70
2020/12/20 02:07:16;;;;;;;7.63;6.93;;;9.40;99.90;;;;;;5067836;28;20632;-71
2020/12/20 02:10:03;;;;;;;8.20;7.00;;;9.40;99.90;;;;;;5064002;28;20677;-70
2020/12/20 02:12:47;;;;;;;7.60;6.90;;;9.40;99.90;;;;;;5053288;28;20682;-70
2020/12/20 02:15:32;;;;;;;7.57;6.87;;;9.40;99.90;;;;;;5070146;28;20585;-71
2020/12/20 02:18:16;;;;;;;7.43;6.60;;;9.40;99.90;;;;;;5067446;28;20573;-70
2020/12/20 02:21:05;;;;;;;7.23;6.53;;;9.40;99.90;;;;;;5062615;28;20595;-70
2020/12/20 02:23:50;;;;;;;8.60;7.70;;;9.30;99.90;;;;;;5053689;28;21365;-70
2020/12/20 02:26:35;;;;;;;7.80;7.10;;;9.30;99.90;;;;;;5055676;28;20811;-70
2020/12/20 02:29:20;;;;;;;8.70;7.90;;;9.30;99.90;;;;;;5068265;28;20655;-70
2020/12/20 02:32:04;;;;;;;7.57;6.97;;;9.30;99.90;;;;;;5061762;28;20633;-69
2020/12/20 02:34:48;;;;;;;7.30;6.70;;;9.30;99.90;;;;;;5058001;28;20653;-70
2020/12/20 02:37:34;;;;;;;7.33;6.73;;;9.20;99.90;;;;;;5060644;28;20596;-69
2020/12/20 02:40:19;;;;;;;7.87;7.07;;;9.20;99.90;;;;;;5057454;28;21005;-69
2020/12/20 02:43:03;;;;;;;7.40;6.70;;;9.30;99.90;;;;;;5053374;28;20636;-69
2020/12/20 02:45:48;;;;;;;7.17;6.47;;;9.20;99.90;;;;;;5066665;28;20596;-70
2020/12/20 02:48:33;;;;;;;7.20;6.60;;;9.20;99.90;;;;;;5063641;28;20699;-70
2020/12/20 02:51:17;;;;;;;9.60;7.00;;;9.10;99.90;;;;;;5066791;28;21243;-70
2020/12/20 02:54:04;;;;;;;7.30;6.60;;;9.20;99.90;;;;;;5057322;28;20720;-70
2020/12/20 02:56:49;;;;;;;7.43;6.73;;;9.10;99.90;;;;;;5053824;28;20677;-70
2020/12/20 02:59:33;;;;;;;7.20;6.50;;;9.10;99.90;;;;;;5055146;22;20692;-90
2020/12/20 03:02:17;;;;;;;8.10;7.30;;;9.00;99.90;;;;;;5042182;28;20690;-90
2020/12/20 03:05:02;;;;;;;7.40;6.70;;;9.20;99.90;;;;;;5062439;28;20582;-92
2020/12/20 03:07:47;;;;;;;7.73;7.03;;;9.10;99.90;;;;;;5062026;28;20605;-91
2020/12/20 03:10:32;;;;;;;7.70;7.00;;;9.00;99.90;;;;;;5062543;28;20637;-90
2020/12/20 03:13:16;;;;;;;7.30;6.70;;;8.90;99.90;;;;;;5060631;28;20653;-92
2020/12/20 03:16:01;;;;;;;7.23;6.40;;;9.10;99.90;;;;;;5003259;23;20703;-66
2020/12/20 03:18:45;;;;;;;7.87;7.17;;;9.00;99.90;;;;;;4992030;28;21246;-68
2020/12/20 03:21:30;;;;;;;7.10;6.40;;;8.90;99.90;;;;;;4978062;28;20655;-68
2020/12/20 03:24:14;;;;;;;7.00;6.40;;;9.00;99.90;;;;;;4984695;28;21207;-68
2020/12/20 03:26:58;;;;;;;7.50;6.87;;;9.00;99.90;;;;;;4976895;28;20963;-68
2020/12/20 03:29:43;;;;;;;8.43;6.90;;;9.00;99.90;;;;;;4974931;28;20744;-68
2020/12/20 03:32:27;;;;;;;7.50;6.57;;;9.10;99.90;;;;;;4981188;28;20620;-69
2020/12/20 03:35:12;;;;;;;8.20;7.40;;;9.00;99.90;;;;;;4980673;28;20690;-66
2020/12/20 03:37:56;;;;;;;7.77;6.97;;;9.00;99.90;;;;;;4975422;28;20627;-66
2020/12/20 03:40:41;;;;;;;6.90;6.30;;;9.00;99.90;;;;;;5006814;28;20655;-66
2020/12/20 03:43:25;;;;;;;7.07;6.37;;;9.00;99.90;;;;;;4984850;28;20621;-66
2020/12/20 03:46:10;;;;;;;6.83;6.23;;;9.10;99.90;;;;;;4995225;28;21039;-68
2020/12/20 03:48:54;;;;;;;6.47;5.87;;;9.00;99.90;;;;;;4992121;28;20655;-68
2020/12/20 03:51:39;;;;;;;6.97;6.37;;;9.10;99.90;;;;;;4993844;28;20623;-66
2020/12/20 03:54:24;;;;;;;7.40;6.70;;;9.10;99.90;;;;;;4999546;28;20706;-66
2020/12/20 03:57:16;;;;;;;7.10;6.40;;;9.10;99.90;;;;;;4986538;28;20724;-66
2020/12/20 04:00:00;;;;;;;8.07;7.27;;;9.10;99.90;;;;;;4977503;28;20700;-68
2020/12/20 04:02:44;;;;;;;7.07;6.37;;;9.10;99.90;;;;;;4971995;28;20644;-66
2020/12/20 04:05:29;;;;;;;6.77;6.07;;;9.20;99.90;;;;;;5004201;28;21241;-68
2020/12/20 04:08:13;;;;;;;7.70;6.93;;;9.10;99.90;;;;;;4972572;28;20674;-66
2020/12/20 04:10:58;;;;;;;7.07;6.50;;;9.10;99.90;;;;;;4987751;28;20728;-69
2020/12/20 04:13:42;;;;;;;6.57;5.97;;;9.10;99.90;;;;;;4982886;28;20659;-68
2020/12/20 04:16:27;;;;;;;7.63;6.93;;;9.10;99.90;;;;;;4989399;28;20758;-66
2020/12/20 04:19:11;;;;;;;7.13;6.53;;;9.10;99.90;;;;;;4989094;28;20976;-66
2020/12/20 04:21:55;;;;;;;8.13;6.57;;;9.20;99.90;;;;;;4990802;28;20950;-66
2020/12/20 04:24:40;;;;;;;7.03;6.43;;;9.10;99.90;;;;;;4975303;28;20738;-67
2020/12/20 04:27:24;;;;;;;7.90;7.13;;;9.10;99.90;;;;;;4995095;28;20969;-66
2020/12/20 04:30:09;;;;;;;6.90;6.30;;;9.00;99.90;;;;;;4975398;28;20661;-66
2020/12/20 04:32:53;;;;;;;7.57;6.77;;;9.00;99.90;;;;;;4988442;28;21313;-66
2020/12/20 04:35:38;;;;;;;7.10;6.50;;;9.00;99.90;;;;;;4989822;28;20586;-66
2020/12/20 04:38:23;;;;;;;9.00;7.20;;;9.00;99.90;;;;;;4982677;28;20736;-68
2020/12/20 04:41:09;;;;;;;7.53;6.83;;;9.00;99.90;;;;;;5002406;28;20660;-66
2020/12/20 04:43:54;;;;;;;8.00;7.20;;;9.00;99.90;;;;;;4983863;28;21004;-66
2020/12/20 04:46:39;;;;;;;7.90;6.67;;;9.00;99.90;;;;;;4988859;28;20609;-67
2020/12/20 04:49:29;;;;;;;7.23;6.63;;;9.10;99.90;;;;;;4978639;28;20685;-67
2020/12/20 04:52:15;;;;;;;7.33;6.63;;;9.10;99.90;;;;;;4972947;28;20716;-67
2020/12/20 04:55:01;;;;;;;7.80;7.00;;;9.10;99.90;;;;;;4988602;28;20644;-67
2020/12/20 04:57:46;;;;;;;6.47;5.97;;;9.10;99.90;;;;;;4982962;28;20972;-66
2020/12/20 05:00:31;;;;;;;7.20;6.60;;;9.10;99.90;;;;;;4987446;28;20803;-66
2020/12/20 05:03:15;;;;;;;7.30;6.70;;;9.10;99.90;;;;;;4989060;28;20640;-67
2020/12/20 05:05:59;;;;;;;7.23;6.53;;;9.20;99.90;;;;;;4987240;28;20589;-67
2020/12/20 05:08:45;;;;;;;7.03;6.43;;;9.10;99.90;;;;;;4994531;28;20683;-66
2020/12/20 05:11:38;;;;;;;6.70;6.00;;;9.10;99.90;;;;;;4999349;28;20786;-68
2020/12/20 05:14:33;;;;;;;6.83;6.23;;;9.10;99.90;;;;;;4995967;28;20726;-68
2020/12/20 05:17:18;;;;;;;7.03;6.43;;;9.20;99.90;;;;;;4974737;28;20959;-68
2020/12/20 05:20:08;;;;;;;7.27;6.57;;;9.20;99.90;;;;;;4971042;28;20975;-66
2020/12/20 05:22:56;;;;;;;7.33;6.63;;;9.20;99.90;;;;;;4990032;28;20789;-66
2020/12/20 05:25:41;;;;;;;7.30;6.70;;;9.10;99.90;;;;;;4977839;28;20775;-66
2020/12/20 05:28:26;;;;;;;7.03;6.30;;;9.10;99.90;;;;;;4993096;28;20619;-66
2020/12/20 05:31:10;;;;;;;7.60;6.90;;;9.10;99.90;;;;;;4988804;28;21302;-66
2020/12/20 05:33:58;;;;;;;7.00;6.40;;;9.00;99.90;;;;;;4985732;28;20648;-66
2020/12/20 05:36:42;;;;;;;7.00;6.40;;;9.00;99.90;;;;;;4997468;28;20608;-66
2020/12/20 05:39:27;;;;;;;6.80;6.20;;;9.00;99.90;;;;;;4992457;28;20644;-66
2020/12/20 05:42:11;;;;;;;6.70;6.20;;;9.00;99.90;;;;;;4975269;28;20585;-66
2020/12/20 05:45:12;;;;;;;6.63;6.07;;;9.00;99.90;;;;;;5000568;28;20644;-66
2020/12/20 05:47:57;;;;;;;6.60;6.00;;;9.10;99.90;;;;;;4999133;28;20635;-68
2020/12/20 05:51:09;;;;;;;7.50;6.43;;;9.10;99.90;;;;;;4993648;28;20684;-66
2020/12/20 05:53:53;;;;;;;9.20;6.53;;;9.20;99.90;;;;;;4988997;28;20703;-66
2020/12/20 05:56:38;;;;;;;6.63;6.03;;;9.10;99.90;;;;;;4993707;28;20620;-67
2020/12/20 05:59:22;;;;;;;7.17;6.13;;;9.10;99.90;;;;;;4989198;28;20592;-66
2020/12/20 06:02:08;;;;;;;7.33;6.70;;;9.10;99.90;;;;;;4984447;28;20707;-68
2020/12/20 06:04:54;;;;;;;6.97;6.30;;;9.10;99.90;;;;;;5003962;28;21273;-66
2020/12/20 06:07:44;;;;;;;8.07;7.27;;;9.10;99.90;;;;;;4987704;28;20672;-66
2020/12/20 06:10:34;;;;;;;6.90;6.23;;;9.10;99.90;;;;;;4998151;28;20678;-67
2020/12/20 06:13:23;;;;;;;7.10;6.40;;;9.10;99.90;;;;;;4982874;28;20787;-66
2020/12/20 06:16:09;;;;;;;7.67;6.97;;;9.10;99.90;;;;;;4980872;28;20665;-66
2020/12/20 06:19:02;;;;;;;7.83;7.00;;;9.10;99.90;;;;;;4995189;28;20638;-66
2020/12/20 06:22:07;;;;;;;7.27;6.60;;;9.10;99.90;;;;;;4999275;28;20657;-66
2020/12/20 06:24:54;;;;;;;8.70;6.90;;;9.00;99.90;;;;;;4973666;28;20632;-66
2020/12/20 06:27:48;;;;;;;7.10;6.50;;;9.00;99.90;;;;;;5000336;28;20954;-66
2020/12/20 06:30:33;;;;;;;7.50;6.80;;;9.00;99.90;;;;;;4980044;28;20735;-66
2020/12/20 06:33:35;;;;;;;7.67;6.90;;;9.00;99.90;;;;;;4987536;28;20651;-66
2020/12/20 06:36:21;;;;;;;7.90;7.10;;;9.10;99.90;;;;;;4978329;28;20672;-66
2020/12/20 06:39:05;;;;;;;7.67;6.97;;;9.00;99.90;;;;;;4983385;28;20729;-66
2020/12/20 06:41:51;;;;;;;7.77;7.07;;;8.90;99.90;;;;;;4981909;28;20976;-66
2020/12/20 06:44:36;;;;;;;8.30;7.40;;;9.00;99.90;;;;;;4988449;28;20647;-66
2020/12/20 06:47:59;;;;;;;8.00;6.70;;;9.00;99.90;;;;;;4974131;28;20660;-66
2020/12/20 06:50:50;;;;;;;7.50;6.80;;;9.00;99.90;;;;;;4979886;28;20760;-66
2020/12/20 06:53:48;;;;;;;7.47;6.80;;;8.90;99.90;;;;;;5000513;28;20640;-66
2020/12/20 06:56:32;;;;;;;8.10;7.30;;;8.90;99.90;;;;;;4986858;28;20609;-66
2020/12/20 06:59:45;;;;;;;7.60;7.00;;;9.00;99.90;;;;;;4997052;28;20617;-66
2020/12/20 07:02:48;;;;;;;7.30;6.60;;;9.00;99.90;;;;;;4982684;28;20720;-66
2020/12/20 07:05:40;;;;;;;7.40;6.70;;;9.00;99.90;;;;;;4957595;28;20768;-66
2020/12/20 07:08:25;;;;;;;7.20;6.50;;;9.00;99.90;;;;;;4971788;28;20753;-66
2020/12/20 07:11:21;;;;;;;7.80;7.00;;;9.00;99.90;;;;;;4980270;28;20676;-67
2020/12/20 07:14:22;;;;;;;7.27;6.60;;;9.00;99.90;;;;;;4978179;28;20652;-66
2020/12/20 07:17:24;;;;;;;8.13;7.13;;;9.00;99.90;;;;;;4983655;28;20696;-66
2020/12/20 07:20:12;;;;;;;7.70;7.00;;;8.90;99.90;;;;;;4983788;28;20657;-66
2020/12/20 07:22:56;;;;;;;7.83;6.97;;;8.90;99.90;;;;;;4985311;28;21229;-66
2020/12/20 07:25:42;;;;;;;8.03;7.30;;;9.00;99.90;;;;;;4990809;28;20585;-66
2020/12/20 07:28:26;;;;;;;6.83;6.13;;;8.90;99.90;;;;;;4996682;28;20701;-66
2020/12/20 07:31:19;;;;;;;7.00;6.40;;;9.00;99.90;;;;;;4987739;28;20810;-67
2020/12/20 07:34:05;;;;;;;7.20;6.60;;;9.00;99.90;;;;;;4982120;28;20711;-66
2020/12/20 07:36:52;;;;;;;7.10;6.47;;;9.00;99.90;;;;;;4985395;28;20672;-66
2020/12/20 07:39:36;;;;;;;7.83;7.13;;;9.00;99.90;;;;;;4991958;28;20664;-66
2020/12/20 07:42:21;;;;;;;8.13;7.33;;;9.10;99.90;;;;;;5006134;28;20676;-66
2020/12/20 07:45:05;;;;;;;7.80;7.00;;;9.00;99.90;;;;;;4984337;28;20593;-66
2020/12/20 07:47:50;;;;;;;7.03;6.43;;;9.00;99.90;;;;;;4995582;28;20768;-66
2020/12/20 07:50:35;;;;;;;7.90;7.20;;;9.00;99.90;;;;;;4998837;28;21146;-66
2020/12/20 07:53:22;;;;;;;7.60;6.90;;;9.00;99.90;;;;;;4982930;28;20659;-66
2020/12/20 07:56:07;;;;;;;8.00;7.30;;;9.00;99.90;;;;;;4979975;28;21099;-66
2020/12/20 07:58:53;;;;;;;7.33;6.63;;;9.00;99.90;;;;;;4981346;28;20621;-67
2020/12/20 08:01:38;;;;;;;8.63;7.33;;;9.10;99.90;;;;;;4994938;28;20782;-67
2020/12/20 08:04:23;;;;;;;7.90;7.20;;;9.20;99.90;;;;;;4977318;28;20660;-67
2020/12/20 08:07:14;;;;;;;8.40;7.60;;;9.10;99.90;;;;;;4986238;28;21018;-67
2020/12/20 08:09:58;;;;;;;7.47;6.80;;;9.10;99.90;;;;;;4990115;28;20657;-66
2020/12/20 08:12:50;;;;;;;7.63;6.93;;;9.10;99.90;;;;;;4982650;28;20725;-67
2020/12/20 08:15:34;;;;;;;7.40;6.80;;;9.10;99.90;;;;;;4990205;28;20695;-67
2020/12/20 08:18:19;;;;;;;7.93;7.13;;;9.10;99.90;;;;;;4990995;28;20588;-66
2020/12/20 08:21:07;;;;;;;7.77;7.07;;;9.10;99.90;;;;;;5011723;28;20658;-66
2020/12/20 08:23:53;;;;;;;8.27;7.50;;;9.20;99.90;;;;;;4999999;28;20644;-67
2020/12/20 08:26:39;;;;;;;8.13;7.33;;;9.10;99.90;;;;;;4995519;28;20675;-67
2020/12/20 08:29:23;;;;;;;8.17;7.47;;;9.10;99.90;;;;;;4989421;28;20729;-68
2020/12/20 08:32:13;;;;;;;7.30;6.60;;;9.20;99.90;;;;;;4995560;28;20772;-67
2020/12/20 08:35:09;;;;;;;7.73;7.03;;;9.10;99.90;;;;;;4991117;28;20631;-67
2020/12/20 08:37:59;;;;;;;8.57;7.77;;;9.20;99.90;;;;;;4988765;28;20619;-66
2020/12/20 08:40:44;;;;;;;7.87;7.17;;;9.10;99.90;;;;;;4992403;28;20702;-67
2020/12/20 08:43:28;;;;;;;8.40;7.60;;;9.10;99.90;;;;;;4979460;28;20635;-67
2020/12/20 08:46:33;;;;;;;8.30;7.60;;;9.10;99.90;;;;;;4979285;28;21242;-67
2020/12/20 08:49:20;;;;;;;8.53;7.67;;;9.00;99.90;;;;;;4991542;28;20704;-66
2020/12/20 08:52:10;;;;;;;8.13;7.33;;;9.00;99.90;;;;;;4981786;28;20628;-66
2020/12/20 08:54:56;;;;;;;8.17;7.20;;;9.00;99.90;;;;;;4987025;28;20645;-69
2020/12/20 08:57:40;;;;;;;7.97;7.30;;;9.10;99.90;;;;;;4987707;28;20585;-67
2020/12/20 09:00:24;;;;;;;9.37;8.00;;;9.10;99.90;;;;;;5008928;23;20796;-71
2020/12/20 09:03:09;;;;;;;8.77;7.97;;;9.10;99.90;;;;;;4999129;28;21173;-72
2020/12/20 09:05:53;;;;;;;10.17;7.97;;;9.00;99.90;;;;;;4986149;28;22021;-69
2020/12/20 09:08:38;;;;;;;9.00;8.10;;;9.10;99.90;;;;;;5005163;28;21158;-70
2020/12/20 09:11:28;;;;;;;9.17;8.27;;;9.10;99.90;;;;;;4995480;28;20827;-71
2020/12/20 09:14:13;;;;;;;8.13;7.43;;;9.20;99.90;;;;;;4989417;28;20686;-72
2020/12/20 09:16:58;;;;;;;8.10;7.30;;;9.30;99.90;;;;;;4993183;28;20589;-71
2020/12/20 09:19:55;;;;;;;8.23;7.53;;;9.40;99.90;;;;;;5004640;28;20588;-71
2020/12/20 09:22:39;;;;;;;9.40;8.00;;;9.40;99.90;;;;;;5004086;28;20648;-71
2020/12/20 09:25:39;;;;;;;8.67;7.87;;;9.30;99.90;;;;;;4990253;28;20635;-72
2020/12/20 09:28:29;;;;;;;8.53;7.73;;;9.30;99.90;;;;;;4989561;28;20698;-71
2020/12/20 09:31:18;;;;;;;8.47;7.77;;;9.30;99.90;;;;;;4988207;28;20749;-71
2020/12/20 09:34:02;;;;;;;8.57;7.70;;;9.20;99.90;;;;;;4996462;28;20643;-71
2020/12/20 09:36:47;;;;;;;8.20;7.50;;;9.20;99.90;;;;;;4985493;28;21169;-71
2020/12/20 09:39:34;;;;;;;8.80;7.90;;;9.20;99.90;;;;;;4996134;28;20576;-71
2020/12/20 09:42:18;;;;;;;8.07;7.47;;;9.30;99.90;;;;;;5006139;28;20941;-71
2020/12/20 09:45:04;;;;;;;8.30;7.60;;;9.30;99.90;;;;;;4982865;28;20600;-71
2020/12/20 09:47:48;;;;;;;8.73;7.83;;;9.40;99.90;;;;;;4996291;28;20599;-71
2020/12/20 09:50:33;;;;;;;8.13;7.40;;;9.40;99.90;;;;;;4997865;28;20639;-71
2020/12/20 09:53:18;;;;;;;11.13;7.57;;;9.40;99.90;;;;;;4983543;28;20790;-70
2020/12/20 09:56:02;;;;;;;9.03;7.67;;;9.30;99.90;;;;;;4993626;28;20979;-71
2020/12/20 09:58:47;;;;;;;10.00;8.10;;;9.50;99.90;;;;;;4996461;28;20595;-72
2020/12/20 10:01:32;;;;;;;9.17;8.27;;;9.40;99.90;;;;;;4990915;28;20751;-72
2020/12/20 10:04:17;;;;;;;8.80;8.00;;;9.50;99.90;;;;;;4985528;28;21062;-72
2020/12/20 10:07:01;;;;;;;8.73;7.97;;;9.40;99.90;;;;;;4994648;28;20666;-73
2020/12/20 10:09:46;;;;;;;9.30;8.37;;;9.50;99.90;;;;;;4999695;28;20595;-72
2020/12/20 10:12:30;;;;;;;8.50;7.70;;;9.60;99.90;;;;;;4993417;28;20657;-72
2020/12/20 10:15:16;;;;;;;8.53;7.83;;;9.60;99.90;;;;;;4989380;28;20589;-71
2020/12/20 10:18:03;;;;;;;9.17;8.30;;;9.60;99.90;;;;;;5007799;28;20646;-71
2020/12/20 10:20:47;;;;;;;9.50;8.60;;;9.60;99.90;;;;;;4996794;28;20647;-71
2020/12/20 10:23:32;;;;;;;9.10;7.90;;;9.60;99.90;;;;;;4994122;28;21115;-72
2020/12/20 10:26:17;;;;;;;9.30;8.27;;;9.60;99.90;;;;;;5004407;28;20599;-71
2020/12/20 10:29:01;;;;;;;8.40;7.70;;;9.70;99.90;;;;;;4998134;28;20618;-71
2020/12/20 10:31:46;;;;;;;8.90;8.10;;;9.60;99.90;;;;;;5011447;28;21252;-72
2020/12/20 10:34:31;;;;;;;8.90;8.10;;;9.80;99.90;;;;;;4995409;28;21292;-72
2020/12/20 10:37:15;;;;;;;9.30;8.20;;;9.70;99.90;;;;;;4986892;28;20960;-73
2020/12/20 10:39:59;;;;;;;9.17;8.37;;;9.80;99.90;;;;;;5005299;28;20670;-72
2020/12/20 10:42:46;;;;;;;8.63;7.83;;;9.90;99.90;;;;;;4992037;28;21190;-72
2020/12/20 10:45:31;;;;;;;9.83;8.87;;;9.90;99.90;;;;;;4996838;28;20595;-71
2020/12/20 10:48:15;;;;;;;9.93;9.03;;;9.90;99.90;;;;;;4995408;28;20675;-71
2020/12/20 10:50:59;;;;;;;8.63;7.67;;;9.80;99.90;;;;;;5006018;28;21110;-71
2020/12/20 10:53:44;;;;;;;9.90;8.20;;;9.90;99.90;;;;;;4989128;28;20737;-71
2020/12/20 10:56:28;;;;;;;9.83;8.80;;;9.80;99.90;;;;;;4996022;28;20987;-71
2020/12/20 10:59:13;;;;;;;9.30;8.50;;;9.90;99.90;;;;;;4994457;28;20655;-70
2020/12/20 11:02:01;;;;;;;10.13;9.10;;;9.90;99.90;;;;;;4992110;28;21187;-73
2020/12/20 11:04:46;;;;;;;10.10;9.20;;;9.80;99.90;;;;;;5008353;28;21247;-71
2020/12/20 11:07:30;;;;;;;12.20;8.77;;;9.80;99.90;;;;;;4997909;28;20591;-73
2020/12/20 11:10:15;;;;;;;9.83;8.83;;;9.90;99.90;;;;;;4996722;28;20718;-72
2020/12/20 11:12:59;;;;;;;10.70;9.80;;;9.90;99.90;;;;;;4998780;28;20672;-71
2020/12/20 11:15:46;;;;;;;9.53;8.23;;;9.90;99.90;;;;;;4987536;28;21494;-71
2020/12/20 11:18:31;;;;;;;10.00;9.00;;;9.90;99.90;;;;;;5007355;28;20602;-71
2020/12/20 11:21:21;;;;;;;9.47;8.57;;;9.80;99.90;;;;;;5002416;28;20761;-71
2020/12/20 11:24:06;;;;;;;9.80;8.90;;;9.70;99.90;;;;;;5000125;28;20663;-72
2020/12/20 11:26:52;;;;;;;10.70;9.70;;;9.90;99.90;;;;;;4975769;28;20748;-77
2020/12/20 11:29:39;;;;;;;10.27;9.17;;;9.80;99.90;;;;;;4999198;28;20585;-73
2020/12/20 11:32:23;;;;;;;9.47;8.57;;;9.80;99.90;;;;;;4998148;28;20958;-73
2020/12/20 11:35:09;;;;;;;10.60;9.60;;;9.90;99.90;;;;;;4989100;28;20589;-73
2020/12/20 11:37:53;;;;;;;10.33;9.33;;;10.00;99.90;;;;;;4985915;28;21218;-72
2020/12/20 11:40:38;;;;;;;9.43;8.53;;;10.00;99.90;;;;;;4999112;28;20833;-72
2020/12/20 11:43:22;;;;;;;9.10;8.30;;;9.90;99.90;;;;;;4999129;28;20645;-72
2020/12/20 11:46:09;;;;;;;10.10;9.13;;;10.00;99.90;;;;;;4998088;28;20710;-76
2020/12/20 11:48:54;;;;;;;10.33;9.20;;;10.00;99.90;;;;;;4985180;28;20734;-74
2020/12/20 11:51:39;;;;;;;10.03;9.13;;;10.00;99.90;;;;;;4973722;28;20651;-75
2020/12/20 11:54:23;;;;;;;9.93;9.03;;;10.00;99.90;;;;;;4972930;28;20619;-75
2020/12/20 11:57:08;;;;;;;10.90;9.80;;;10.00;99.90;;;;;;4987373;28;20724;-75
2020/12/20 11:59:52;;;;;;;10.03;9.13;;;10.00;99.90;;;;;;4985476;28;20648;-74
2020/12/20 12:02:37;;;;;;;10.43;9.50;;;10.00;99.90;;;;;;4987710;28;20905;-73
2020/12/20 12:05:22;;;;;;;10.90;9.80;;;10.10;99.90;;;;;;4980435;28;20603;-74
2020/12/20 12:08:06;;;;;;;10.70;9.70;;;10.10;99.90;;;;;;4985664;28;20711;-75
2020/12/20 12:10:52;;;;;;;10.30;9.30;;;10.10;99.90;;;;;;4991901;28;20705;-75
2020/12/20 12:13:36;;;;;;;10.47;9.50;;;10.00;99.90;;;;;;4985791;28;20658;-73
2020/12/20 12:16:21;;;;;;;11.27;10.17;;;10.00;99.90;;;;;;4989148;28;23262;-73
2020/12/20 12:19:05;;;;;;;11.27;10.17;;;10.00;99.90;;;;;;5003818;28;21078;-72
2020/12/20 12:21:49;;;;;;;10.50;9.60;;;10.00;99.90;;;;;;4979343;28;20671;-72
2020/12/20 12:24:34;;;;;;;13.83;10.37;;;10.10;99.90;;;;;;5003465;28;20647;-73
2020/12/20 12:27:18;;;;;;;11.20;10.10;;;9.90;99.90;;;;;;4984850;28;20597;-73
2020/12/20 12:30:03;;;;;;;11.00;10.00;;;9.90;99.90;;;;;;4998620;28;20741;-75
2020/12/20 12:32:50;;;;;;;10.70;9.60;;;10.00;99.90;;;;;;4989183;28;20651;-72
2020/12/20 12:35:34;;;;;;;11.20;10.00;;;10.00;99.90;;;;;;5004980;28;20595;-70
2020/12/20 12:38:19;;;;;;;11.30;10.30;;;10.00;99.90;;;;;;4987082;28;21163;-69
2020/12/20 12:41:03;;;;;;;10.60;9.57;;;10.00;99.90;;;;;;4982875;28;20772;-75
2020/12/20 12:43:47;;;;;;;11.30;10.20;;;10.00;99.90;;;;;;4988476;28;20643;-75
2020/12/20 12:46:32;;;;;;;11.70;10.70;;;10.10;99.90;;;;;;4994121;28;20706;-76
2020/12/20 12:49:16;;;;;;;10.80;9.70;;;10.10;99.90;;;;;;4990887;28;20754;-75
2020/12/20 12:52:01;;;;;;;11.37;10.17;;;10.10;99.90;;;;;;4996093;28;20646;-76
2020/12/20 12:54:45;;;;;;;11.20;10.10;;;10.10;99.90;;;;;;4984113;28;20664;-76
2020/12/20 12:57:29;;;;;;;12.37;11.17;;;10.30;99.90;;;;;;4992406;28;21138;-73
2020/12/20 13:00:14;;;;;;;11.03;9.97;;;10.20;99.90;;;;;;4983577;28;20674;-76
2020/12/20 13:02:58;;;;;;;10.83;9.83;;;10.20;99.90;;;;;;4977716;28;21270;-77
2020/12/20 13:05:43;;;;;;;11.03;10.03;;;10.20;99.90;;;;;;4973302;28;20735;-77
2020/12/20 13:08:27;;;;;;;10.97;9.87;;;10.30;99.90;;;;;;4990986;28;20601;-75
2020/12/20 13:11:12;;;;;;;11.07;9.90;;;10.30;99.90;;;;;;4986374;28;20660;-75
2020/12/20 13:13:56;;;;;;;11.53;10.27;;;10.30;99.90;;;;;;4977782;28;20751;-77
2020/12/20 13:16:47;;;;;;;11.47;10.40;;;10.30;99.90;;;;;;4988362;28;20634;-75
2020/12/20 13:19:32;;;;;;;11.07;10.00;;;10.30;99.90;;;;;;4982638;28;21273;-76
2020/12/20 13:22:16;;;;;;;12.43;9.73;;;10.40;99.90;;;;;;4987914;28;20970;-75
2020/12/20 13:25:01;;;;;;;11.00;10.00;;;10.40;99.90;;;;;;4986181;28;20761;-72
2020/12/20 13:27:45;;;;;;;11.87;10.77;;;10.40;99.90;;;;;;4997287;28;20597;-71
2020/12/20 13:30:30;;;;;;;11.40;10.30;;;10.30;99.90;;;;;;4999433;28;20658;-74
2020/12/20 13:33:14;;;;;;;11.77;10.57;;;10.30;99.90;;;;;;4992319;28;20667;-72
2020/12/20 13:35:59;;;;;;;10.93;9.93;;;10.40;99.90;;;;;;4993661;28;20683;-73
2020/12/20 13:38:44;;;;;;;11.37;10.20;;;10.50;99.90;;;;;;4982945;28;20600;-70
2020/12/20 13:41:29;;;;;;;10.63;9.53;;;10.40;99.90;;;;;;4990861;28;20671;-70
2020/12/20 13:44:16;;;;;;;12.30;11.20;;;10.50;99.90;;;;;;4993895;28;20650;-70
2020/12/20 13:47:00;;;;;;;12.23;11.03;;;10.40;99.90;;;;;;5002921;28;20953;-74
2020/12/20 13:49:45;;;;;;;11.70;10.70;;;10.50;99.90;;;;;;4993469;28;20639;-69
2020/12/20 13:52:29;;;;;;;11.33;10.23;;;10.40;99.90;;;;;;5007280;28;20619;-69
2020/12/20 13:55:14;;;;;;;11.70;10.60;;;10.40;99.90;;;;;;4999482;28;20608;-69
2020/12/20 13:57:58;;;;;;;11.57;10.47;;;10.50;99.90;;;;;;4989237;28;21153;-68
2020/12/20 14:00:43;;;;;;;12.50;11.07;;;10.40;99.90;;;;;;4981676;28;20765;-67
2020/12/20 14:03:28;;;;;;;12.13;10.93;;;10.40;99.90;;;;;;4983058;28;21224;-67
2020/12/20 14:06:12;;;;;;;12.80;11.50;;;10.40;99.90;;;;;;4992543;28;20955;-70
2020/12/20 14:08:57;;;;;;;11.77;10.57;;;10.50;99.90;;;;;;5002951;28;20758;-69
2020/12/20 14:11:42;;;;;;;11.17;10.07;;;10.60;99.90;;;;;;4999791;28;20662;-69
2020/12/20 14:14:26;;;;;;;12.00;10.90;;;10.50;99.90;;;;;;4987319;28;21220;-68
2020/12/20 14:17:11;;;;;;;13.80;11.17;;;10.50;99.90;;;;;;4995526;28;20648;-68
2020/12/20 14:19:55;;;;;;;11.63;10.43;;;10.40;99.90;;;;;;5006053;28;20733;-69
2020/12/20 14:22:40;;;;;;;11.87;10.67;;;10.40;99.90;;;;;;4988200;28;21259;-72
2020/12/20 14:25:25;;;;;;;11.87;10.77;;;10.40;99.90;;;;;;5005760;28;20608;-72
2020/12/20 14:28:09;;;;;;;12.37;11.07;;;10.40;99.90;;;;;;4990828;28;20643;-68